Time;durP1;ratioP1;P1;durP2;ratioP2;P2;SDS_P1;SDS_P2;PMS_P1;PMS_P2;Temp;Humidity;BMP_temperature;BMP_pressure;BME280_temperature;BME280_humidity;BME280_pressure;Samples;Min_cycle;Max_cycle;Signal;HPM_P1;HPM_P2
2023/08/04 00:00:36;;;;;;;6.90;4.70;;;;;;;16.07;100.00;98305.81;109688;1250;60272;-73
2023/08/04 00:03:23;;;;;;;7.40;4.70;;;;;;;16.09;100.00;98311.65;109682;1250;74782;-74
2023/08/04 00:05:50;;;;;;;5.60;4.30;;;;;;;16.11;100.00;98311.33;109692;1250;60268;-73
2023/08/04 00:08:17;;;;;;;5.70;4.70;;;;;;;16.12;100.00;98307.64;109675;1250;62870;-73
2023/08/04 00:10:43;;;;;;;7.60;4.10;;;;;;;16.13;100.00;98310.16;109678;1250;58978;-74
2023/08/04 00:13:10;;;;;;;7.10;4.70;;;;;;;16.14;100.00;98310.61;109656;1250;59007;-73
2023/08/04 00:15:36;;;;;;;6.90;4.80;;;;;;;16.15;100.00;98309.08;109679;1250;65987;-73
2023/08/04 00:18:03;;;;;;;9.00;5.50;;;;;;;16.17;100.00;98312.33;109677;1250;61084;-73
2023/08/04 00:20:30;;;;;;;6.70;5.80;;;;;;;16.17;100.00;98311.81;109700;1250;64064;-73
2023/08/04 00:22:56;;;;;;;8.00;6.10;;;;;;;16.17;100.00;98311.41;109644;1250;58986;-73
2023/08/04 00:25:23;;;;;;;8.60;5.00;;;;;;;16.18;100.00;98310.24;109686;1250;59096;-73
2023/08/04 00:27:49;;;;;;;6.90;4.20;;;;;;;16.16;100.00;98307.94;109648;1250;66441;-73
2023/08/04 00:30:16;;;;;;;7.30;4.30;;;;;;;16.13;100.00;98312.04;109688;1251;60214;-73
2023/08/04 00:32:42;;;;;;;8.20;5.30;;;;;;;16.11;100.00;98309.13;109654;1251;62894;-72
2023/08/04 00:35:09;;;;;;;7.00;4.90;;;;;;;16.12;100.00;98309.96;109680;1250;59348;-73
2023/08/04 00:37:36;;;;;;;6.90;4.60;;;;;;;16.13;100.00;98311.10;109696;1251;59009;-73
2023/08/04 00:40:03;;;;;;;6.40;4.30;;;;;;;16.13;100.00;98312.48;109713;1250;66994;-73
2023/08/04 00:42:29;;;;;;;6.80;4.60;;;;;;;16.13;100.00;98314.47;109684;1251;61626;-73
2023/08/04 00:44:56;;;;;;;6.50;4.60;;;;;;;16.13;100.00;98315.74;109693;1250;62815;-73
2023/08/04 00:47:25;;;;;;;10.40;5.10;;;;;;;16.13;100.00;98319.88;109634;1251;59128;-73
2023/08/04 00:49:55;;;;;;;7.90;4.70;;;;;;;16.14;100.00;98322.98;109679;1251;58972;-73
2023/08/04 00:52:22;;;;;;;;;;;;;;;16.16;100.00;98320.23;109687;1251;66146;-73
2023/08/04 00:54:48;;;;;;;7.30;5.00;;;;;;;16.16;100.00;98320.98;109679;1250;61594;-74
2023/08/04 00:57:15;;;;;;;6.60;4.90;;;;;;;16.14;100.00;98316.36;109636;1251;64003;-73
2023/08/04 00:59:42;;;;;;;7.30;4.70;;;;;;;16.12;100.00;98313.86;109354;1251;59072;-73
2023/08/04 01:02:09;;;;;;;6.60;5.30;;;;;;;16.12;100.00;98314.60;109380;1251;59163;-73
2023/08/04 01:04:36;;;;;;;8.20;5.90;;;;;;;16.14;100.00;98317.77;109505;1251;66147;-73
2023/08/04 01:07:12;;;;;;;7.30;5.60;;;;;;;16.16;100.00;98315.09;109574;1251;60137;-74
2023/08/04 01:09:53;;;;;;;7.00;4.80;;;;;;;16.19;100.00;98315.53;109543;1251;64222;-73
2023/08/04 01:12:34;;;;;;;8.90;5.90;;;;;;;16.22;100.00;98321.23;109485;1251;59045;-74
2023/08/04 01:15:02;;;;;;;9.20;5.40;;;;;;;16.24;100.00;98325.41;109536;1251;58890;-74
2023/08/04 01:17:31;;;;;;;6.10;4.20;;;;;;;16.23;100.00;98318.27;109504;1255;64960;-74
2023/08/04 01:19:58;;;;;;;4.80;3.60;;;;;;;16.26;100.00;98313.39;109377;1254;60176;-73
2023/08/04 01:22:26;;;;;;;7.00;3.60;;;;;;;16.28;100.00;98309.92;109550;1251;65214;-74
2023/08/04 01:24:54;;;;;;;6.40;3.40;;;;;;;16.31;100.00;98310.95;109537;1251;58953;-73
2023/08/04 01:27:28;;;;;;;6.30;4.20;;;;;;;16.32;100.00;98300.23;109540;1251;59115;-74
2023/08/04 01:29:57;;;;;;;6.00;4.00;;;;;;;16.33;100.00;98293.17;109538;1255;66022;-73
2023/08/04 01:32:24;;;;;;;5.30;3.80;;;;;;;16.35;100.00;98289.55;109538;1251;59964;-74
2023/08/04 01:34:51;;;;;;;5.80;4.00;;;;;;;16.35;100.00;98285.02;109527;1251;62830;-73
2023/08/04 01:37:17;;;;;;;6.40;4.10;;;;;;;16.35;100.00;98284.67;109487;1251;58965;-74
2023/08/04 01:39:44;;;;;;;5.60;4.20;;;;;;;16.33;100.00;98282.59;109517;1251;58867;-73
2023/08/04 01:42:10;;;;;;;8.40;4.60;;;;;;;16.29;100.00;98284.89;109505;1251;66996;-73
2023/08/04 01:44:37;;;;;;;8.50;5.00;;;;;;;16.29;100.00;98299.30;109512;1251;59853;-73
2023/08/04 01:47:05;;;;;;;6.10;4.50;;;;;;;16.29;100.00;98310.56;109364;1252;64180;-74
2023/08/04 01:49:32;;;;;;;6.30;4.30;;;;;;;16.29;100.00;98313.59;109344;1251;59056;-73
2023/08/04 01:51:58;;;;;;;4.90;4.00;;;;;;;16.30;100.00;98322.68;109510;1251;58962;-73
2023/08/04 01:54:25;;;;;;;6.40;4.40;;;;;;;16.30;100.00;98326.55;109332;1251;64570;-73
2023/08/04 01:56:51;;;;;;;6.00;4.40;;;;;;;16.30;100.00;98331.59;109471;1251;61751;-73
2023/08/04 01:59:18;;;;;;;5.90;4.20;;;;;;;16.30;100.00;98327.69;109505;1255;63999;-73
2023/08/04 02:01:45;;;;;;;7.50;4.30;;;;;;;16.29;100.00;98316.48;109685;1253;59046;-74
2023/08/04 02:04:11;;;;;;;6.70;3.90;;;;;;;16.29;100.00;98298.97;109665;1251;59213;-73
2023/08/04 02:06:37;;;;;;;6.20;4.40;;;;;;;16.28;100.00;98300.44;109659;1251;59311;-72
2023/08/04 02:09:04;;;;;;;8.70;4.60;;;;;;;16.24;100.00;98305.86;109701;1250;58959;-72
2023/08/04 02:11:31;;;;;;;7.40;4.30;;;;;;;16.19;100.00;98306.50;109658;1251;64202;-72
2023/08/04 02:13:59;;;;;;;8.50;5.70;;;;;;;16.17;100.00;98301.02;109510;1251;59017;-73
2023/08/04 02:16:25;;;;;;;7.60;5.30;;;;;;;16.17;100.00;98303.32;109648;1251;59328;-72
2023/08/04 02:19:03;;;;;;;6.80;4.80;;;;;;;16.19;100.00;98308.17;109629;1251;64780;-72
2023/08/04 02:21:30;;;;;;;5.70;4.70;;;;;;;16.20;100.00;98312.76;109669;1251;60146;-72
2023/08/04 02:23:57;;;;;;;6.80;4.80;;;;;;;16.20;100.00;98316.69;109678;1251;65199;-72
2023/08/04 02:26:23;;;;;;;7.10;4.70;;;;;;;16.20;100.00;98321.69;109651;1250;58924;-72
2023/08/04 02:28:52;;;;;;;9.10;4.90;;;;;;;16.20;100.00;98322.80;109704;1250;58926;-72
2023/08/04 02:31:19;;;;;;;7.20;4.80;;;;;;;16.20;100.00;98322.23;109691;1251;67209;-72
2023/08/04 02:33:46;;;;;;;6.10;5.20;;;;;;;16.20;100.00;98323.61;109686;1250;60269;-72
2023/08/04 02:36:13;;;;;;;9.30;5.00;;;;;;;16.20;100.00;98323.65;109667;1250;62904;-72
2023/08/04 02:38:40;;;;;;;6.90;4.60;;;;;;;16.20;100.00;98323.78;109670;1250;58946;-73
2023/08/04 02:41:09;;;;;;;5.40;4.50;;;;;;;16.20;100.00;98319.67;109662;1251;58863;-72
2023/08/04 02:43:36;;;;;;;6.50;4.40;;;;;;;16.19;100.00;98320.00;109525;1251;64774;-73
2023/08/04 02:46:03;;;;;;;8.80;4.30;;;;;;;16.19;100.00;98327.02;109677;1251;60082;-73
2023/08/04 02:48:31;;;;;;;8.20;4.50;;;;;;;16.17;100.00;98336.16;109302;1254;64098;-73
2023/08/04 02:51:10;;;;;;;10.30;5.00;;;;;;;16.17;100.00;98345.13;109283;1254;59128;-72
2023/08/04 02:53:39;;;;;;;6.40;3.70;;;;;;;16.17;100.00;98347.41;109310;1256;58919;-72
2023/08/04 02:56:16;;;;;;;6.00;4.20;;;;;;;16.19;100.00;98341.65;109382;1254;66023;-73
2023/08/04 02:58:44;;;;;;;7.00;4.70;;;;;;;16.20;100.00;98327.95;109325;1254;60171;-74
2023/08/04 03:01:12;;;;;;;5.70;4.40;;;;;;;16.21;100.00;98322.09;109269;1254;64032;-74
2023/08/04 03:03:39;;;;;;;5.80;4.60;;;;;;;16.22;100.00;98318.82;109289;1254;59412;-72
2023/08/04 03:06:06;;;;;;;6.30;5.10;;;;;;;16.22;100.00;98317.14;109214;1254;59009;-72
2023/08/04 03:08:33;;;;;;;6.60;5.10;;;;;;;16.24;100.00;98318.60;109263;1254;66007;-72
2023/08/04 03:10:59;;;;;;;7.90;4.80;;;;;;;16.26;100.00;98322.50;109141;1254;59004;-72
2023/08/04 03:13:27;;;;;;;6.80;4.60;;;;;;;16.26;100.00;98323.95;109311;1254;62718;-71
2023/08/04 03:15:58;;;;;;;6.50;4.70;;;;;;;16.23;100.00;98324.73;109322;1254;58935;-73
2023/08/04 03:18:25;;;;;;;6.70;4.20;;;;;;;16.22;100.00;98324.40;109166;1254;59115;-72
2023/08/04 03:20:51;;;;;;;4.60;4.00;;;;;;;16.20;100.00;98329.52;109686;1251;66035;-73
2023/08/04 03:23:19;;;;;;;5.50;4.20;;;;;;;16.20;100.00;98337.30;109742;1250;60247;-73
2023/08/04 03:25:46;;;;;;;5.20;4.50;;;;;;;16.19;100.00;98344.17;109641;1251;62838;-73
2023/08/04 03:28:12;;;;;;;9.00;4.50;;;;;;;16.19;100.00;98357.23;109594;1251;59273;-73
2023/08/04 03:30:39;;;;;;;7.10;4.40;;;;;;;16.18;100.00;98366.30;109662;1251;59053;-73
2023/08/04 03:33:05;;;;;;;7.70;5.80;;;;;;;16.17;100.00;98364.45;109421;1251;66023;-73
2023/08/04 03:35:32;;;;;;;9.50;6.30;;;;;;;16.17;100.00;98360.19;109647;1250;60034;-73
2023/08/04 03:37:59;;;;;;;8.90;5.90;;;;;;;16.18;100.00;98355.77;109668;1250;62875;-72
2023/08/04 03:40:25;;;;;;;6.30;4.90;;;;;;;16.21;100.00;98362.83;109634;1250;58989;-71
2023/08/04 03:42:52;;;;;;;6.60;5.10;;;;;;;16.24;100.00;98367.16;109632;1250;58933;-73
2023/08/04 03:45:18;;;;;;;6.90;5.70;;;;;;;16.29;100.00;98376.95;109667;1250;67207;-73
2023/08/04 03:47:45;;;;;;;8.90;6.50;;;;;;;16.32;100.00;98379.08;109644;1251;61004;-72
2023/08/04 03:50:11;;;;;;;7.80;6.00;;;;;;;16.35;100.00;98373.05;109676;1251;64086;-72
2023/08/04 03:52:38;;;;;;;11.80;6.80;;;;;;;16.38;100.00;98371.52;109584;1250;59071;-73
2023/08/04 03:55:06;;;;;;;11.60;6.80;;;;;;;16.40;100.00;98371.10;109663;1250;59051;-73
2023/08/04 03:57:33;;;;;;;10.70;7.10;;;;;;;16.41;100.00;98380.65;109412;1250;64475;-73
2023/08/04 04:00:01;;;;;;;12.30;6.80;;;;;;;16.41;100.00;98395.59;109642;1251;59181;-73
2023/08/04 04:02:28;;;;;;;10.80;6.70;;;;;;;16.41;100.00;98405.30;109654;1250;64947;-73
2023/08/04 04:04:54;;;;;;;12.80;7.10;;;;;;;16.42;100.00;98409.47;109631;1251;58937;-73
2023/08/04 04:07:21;;;;;;;10.10;6.80;;;;;;;16.43;100.00;98410.23;109698;1250;59033;-72
2023/08/04 04:09:47;;;;;;;11.60;8.30;;;;;;;16.45;100.00;98406.84;109645;1251;64507;-72
2023/08/04 04:12:14;;;;;;;11.70;7.50;;;;;;;16.45;100.00;98409.30;109652;1250;59069;-72
2023/08/04 04:14:40;;;;;;;9.60;6.00;;;;;;;16.46;100.00;98410.30;109646;1250;59042;-72
2023/08/04 04:17:07;;;;;;;7.80;5.40;;;;;;;16.47;100.00;98410.60;109625;1251;59048;-72
2023/08/04 04:19:33;;;;;;;11.60;6.30;;;;;;;16.48;100.00;98409.77;109434;1250;58960;-73
2023/08/04 04:22:00;;;;;;;7.60;5.40;;;;;;;16.51;100.00;98412.38;109639;1250;59158;-73
2023/08/04 04:24:27;;;;;;;10.40;5.70;;;;;;;16.53;100.00;98418.02;109392;1251;61393;-74
2023/08/04 04:26:53;;;;;;;8.10;4.80;;;;;;;16.55;100.00;98418.00;109645;1250;65270;-73
2023/08/04 04:29:20;;;;;;;6.00;4.70;;;;;;;16.59;100.00;98414.41;109625;1251;59077;-73
2023/08/04 04:31:47;;;;;;;7.00;5.40;;;;;;;16.64;100.00;98415.48;109678;1250;60038;-73
2023/08/04 04:34:13;;;;;;;8.50;5.10;;;;;;;16.68;100.00;98410.73;109691;1250;66165;-73
2023/08/04 04:36:40;;;;;;;7.60;5.20;;;;;;;16.72;100.00;98410.59;109699;1250;61828;-73
2023/08/04 04:39:07;;;;;;;10.10;5.20;;;;;;;16.75;100.00;98409.19;109629;1250;64610;-73
2023/08/04 04:41:34;;;;;;;9.20;5.30;;;;;;;16.79;100.00;98409.68;109592;1250;58954;-73
2023/08/04 04:44:02;;;;;;;10.00;5.40;;;;;;;16.84;100.00;98412.98;109679;1250;58976;-73
2023/08/04 04:46:28;;;;;;;7.60;5.10;;;;;;;16.87;100.00;98414.63;109643;1250;65882;-73
2023/08/04 04:48:55;;;;;;;5.60;4.90;;;;;;;16.91;100.00;98415.80;109670;1250;58951;-73
2023/08/04 04:51:22;;;;;;;6.20;5.50;;;;;;;16.96;100.00;98420.91;109620;1250;64162;-73
2023/08/04 04:53:49;;;;;;;8.80;5.60;;;;;;;17.01;100.00;98422.92;109630;1250;58968;-73
2023/08/04 04:56:15;;;;;;;9.10;5.20;;;;;;;17.05;100.00;98419.39;109704;1250;58955;-73
2023/08/04 04:58:42;;;;;;;8.10;6.10;;;;;;;17.10;100.00;98421.09;109601;1250;75562;-73
2023/08/04 05:01:09;;;;;;;8.60;5.70;;;;;;;17.14;100.00;98420.83;109654;1250;60142;-73
2023/08/04 05:03:36;;;;;;;8.30;5.90;;;;;;;17.19;100.00;98420.69;109636;1250;63278;-73
2023/08/04 05:06:02;;;;;;;10.70;7.90;;;;;;;17.23;100.00;98414.90;109727;1250;58904;-72
2023/08/04 05:08:29;;;;;;;11.50;10.30;;;;;;;17.26;100.00;98415.98;109660;1251;58875;-72
2023/08/04 05:10:55;;;;;;;7.60;6.10;;;;;;;17.28;100.00;98419.91;109405;1250;75857;-73
2023/08/04 05:13:22;;;;;;;6.40;5.40;;;;;;;17.30;100.00;98424.30;109673;1250;59963;-73
2023/08/04 05:15:49;;;;;;;6.10;5.20;;;;;;;17.36;100.00;98426.48;109368;1250;63725;-73
2023/08/04 05:18:16;;;;;;;8.60;5.40;;;;;;;17.42;100.00;98430.83;109629;1250;58971;-73
2023/08/04 05:20:47;;;;;;;6.10;5.10;;;;;;;17.49;100.00;98429.08;109638;1250;58964;-73
2023/08/04 05:23:16;;;;;;;8.60;5.80;;;;;;;17.54;100.00;98430.85;109686;1250;64406;-73
2023/08/04 05:25:43;;;;;;;6.80;5.50;;;;;;;17.59;100.00;98435.42;109713;1250;60151;-73
2023/08/04 05:28:28;;;;;;;11.60;6.10;;;;;;;17.62;100.00;98437.80;109386;1250;64073;-73
2023/08/04 05:30:57;;;;;;;9.30;5.80;;;;;;;17.64;100.00;98441.09;109664;1250;59014;-73
2023/08/04 05:33:25;;;;;;;15.20;11.10;;;;;;;17.68;100.00;98439.69;109676;1250;59126;-73
2023/08/04 05:35:51;;;;;;;11.00;7.50;;;;;;;17.73;100.00;98436.20;109720;1250;65586;-73
2023/08/04 05:38:18;;;;;;;10.10;7.70;;;;;;;17.81;100.00;98429.65;109643;1251;58955;-73
2023/08/04 05:40:46;;;;;;;9.10;7.80;;;;;;;17.89;100.00;98428.08;109714;1250;64064;-74
2023/08/04 05:43:13;;;;;;;9.60;7.10;;;;;;;17.96;100.00;98428.91;109672;1250;58888;-74
2023/08/04 05:45:41;;;;;;;13.10;6.40;;;;;;;18.02;100.00;98436.10;109683;1250;59052;-74
2023/08/04 05:48:08;;;;;;;9.50;6.00;;;;;;;18.04;100.00;98444.30;109480;1250;65748;-74
2023/08/04 05:50:35;;;;;;;7.80;5.80;;;;;;;18.05;100.00;98456.41;109659;1250;58958;-73
2023/08/04 05:53:02;;;;;;;11.30;5.80;;;;;;;18.07;100.00;98461.80;109679;1250;62823;-73
2023/08/04 05:55:29;;;;;;;10.90;6.00;;;;;;;18.09;100.00;98456.89;109666;1250;58986;-73
2023/08/04 05:57:56;;;;;;;14.20;6.80;;;;;;;18.12;100.00;98450.05;109641;1250;59011;-73
2023/08/04 06:00:24;;;;;;;12.50;5.80;;;;;;;18.16;100.00;98432.16;109689;1250;67028;-74
2023/08/04 06:02:50;;;;;;;9.50;6.30;;;;;;;18.22;100.00;98417.95;109687;1250;59873;-73
2023/08/04 06:05:17;;;;;;;8.70;5.60;;;;;;;18.26;100.00;98413.41;109687;1250;63748;-73
2023/08/04 06:07:44;;;;;;;10.10;6.10;;;;;;;18.28;100.00;98419.98;109407;1250;59129;-73
2023/08/04 06:10:10;;;;;;;11.70;6.70;;;;;;;18.32;100.00;98428.66;109674;1250;59012;-73
2023/08/04 06:12:37;;;;;;;8.20;5.70;;;;;;;18.38;100.00;98430.95;109680;1250;66103;-74
2023/08/04 06:15:04;;;;;;;6.80;4.90;;;;;;;18.46;100.00;98432.96;109685;1250;59438;-72
2023/08/04 06:17:32;;;;;;;7.30;4.80;;;;;;;18.53;100.00;98443.64;109393;1250;63748;-74
2023/08/04 06:19:58;;;;;;;8.10;4.60;;;;;;;18.61;100.00;98451.23;109641;1250;59010;-74
2023/08/04 06:22:25;;;;;;;10.90;4.90;;;;;;;18.68;100.00;98452.66;109689;1250;58997;-74
2023/08/04 06:24:51;;;;;;;8.50;4.90;;;;;;;18.75;100.00;98448.34;109655;1250;66084;-74
2023/08/04 06:27:18;;;;;;;14.50;5.30;;;;;;;18.82;100.00;98445.61;109685;1250;59491;-73
2023/08/04 06:29:44;;;;;;;15.40;5.90;;;;;;;18.91;100.00;98439.81;109639;1250;62820;-74
2023/08/04 11:21:08;;;;;;;4.40;1.70;;;;;;;27.39;100.00;98540.48;103340;1281;604397;-74
2023/08/04 11:23:36;;;;;;;2.90;1.90;;;;;;;27.82;100.00;98540.08;104827;1264;142978;-74
2023/08/04 11:26:02;;;;;;;2.80;1.70;;;;;;;27.77;100.00;98538.92;104992;1263;59307;-74
2023/08/04 11:28:32;;;;;;;2.60;1.40;;;;;;;27.72;100.00;98538.17;105014;1264;64476;-74
2023/08/04 11:31:05;;;;;;;4.00;1.50;;;;;;;27.69;100.00;98542.80;104996;1263;59915;-74
2023/08/04 11:33:33;;;;;;;2.70;1.70;;;;;;;27.55;100.00;98551.81;105012;1267;72266;-74
2023/08/04 11:36:03;;;;;;;4.20;2.20;;;;;;;27.47;100.00;98551.62;104990;1267;59254;-74
2023/08/04 11:38:30;;;;;;;2.20;1.70;;;;;;;27.42;100.00;98551.70;104982;1263;59330;-74
2023/08/04 11:41:01;;;;;;;2.20;2.00;;;;;;;27.50;100.00;98549.35;105012;1264;62156;-74
2023/08/04 11:43:30;;;;;;;4.00;2.10;;;;;;;27.68;100.00;98535.52;105862;1252;59997;-74
2023/08/04 11:45:57;;;;;;;3.00;1.80;;;;;;;27.80;100.00;98524.90;105862;1257;64643;-73
2023/08/04 11:48:24;;;;;;;3.80;2.00;;;;;;;27.89;100.00;98519.73;105549;1253;59871;-76
2023/08/04 11:50:56;;;;;;;5.30;2.20;;;;;;;28.04;100.00;98521.08;105781;1254;60005;-75
2023/08/04 11:53:23;;;;;;;3.80;2.10;;;;;;;28.17;100.00;98519.84;105583;1254;64076;-75
2023/08/04 11:56:08;;;;;;;2.70;1.80;;;;;;;28.17;100.00;98524.53;105836;1252;60862;-75
2023/08/04 11:58:36;;;;;;;5.50;2.00;;;;;;;28.01;100.00;98530.18;105913;1254;64254;-76
2023/08/04 12:01:04;;;;;;;3.20;1.60;;;;;;;27.95;100.00;98531.59;105904;1256;59777;-76
2023/08/04 12:03:45;;;;;;;3.70;1.90;;;;;;;27.98;100.00;98536.95;105909;1254;59639;-74
2023/08/04 12:06:26;;;;;;;5.00;2.00;;;;;;;27.91;100.00;98542.92;105847;1252;64780;-74
2023/08/04 12:08:55;;;;;;;5.20;2.00;;;;;;;27.89;100.00;98536.71;105841;1256;60458;-74
2023/08/04 12:11:27;;;;;;;4.60;2.20;;;;;;;27.86;100.00;98529.95;105850;1254;64666;-76
2023/08/04 12:14:07;;;;;;;3.50;1.90;;;;;;;27.83;100.00;98529.09;105809;1253;59624;-75
2023/08/04 12:16:51;;;;;;;4.70;1.80;;;;;;;27.81;100.00;98526.54;105810;1252;59633;-75
2023/08/04 12:19:20;;;;;;;2.40;1.70;;;;;;;27.74;100.00;98523.98;105960;1256;64632;-74
2023/08/04 12:21:52;;;;;;;5.50;2.40;;;;;;;27.78;100.00;98528.40;105956;1255;59952;-75
2023/08/04 12:24:20;;;;;;;3.00;1.90;;;;;;;27.84;100.00;98537.42;105876;1254;64476;-75
2023/08/04 12:26:47;;;;;;;4.00;2.30;;;;;;;27.90;100.00;98541.84;105871;1253;59656;-76
2023/08/04 12:29:31;;;;;;;5.20;2.20;;;;;;;27.98;100.00;98542.42;102529;1290;599974;-75
2023/08/04 12:31:58;;;;;;;2.80;1.90;;;;;;;27.98;100.00;98550.73;104796;1267;59648;-75
2023/08/04 12:34:24;;;;;;;7.80;2.30;;;;;;;27.96;100.00;98554.46;105015;1266;59823;-74
2023/08/04 12:36:51;;;;;;;4.20;1.90;;;;;;;27.92;100.00;98554.30;105009;1267;59280;-74
2023/08/04 12:39:17;;;;;;;4.20;1.90;;;;;;;27.77;100.00;98554.12;104838;1271;59314;-74
2023/08/04 12:41:44;;;;;;;3.60;1.80;;;;;;;27.64;100.00;98555.79;105006;1267;65979;-74
2023/08/04 12:44:10;;;;;;;5.20;2.10;;;;;;;27.59;100.00;98550.35;105224;1261;153590;-75
2023/08/04 12:46:37;;;;;;;4.90;2.20;;;;;;;27.49;100.00;98550.80;105347;1260;59387;-74
2023/08/04 12:49:04;;;;;;;4.20;2.10;;;;;;;27.48;100.00;98549.05;105387;1260;64069;-75
2023/08/04 12:51:31;;;;;;;4.30;2.60;;;;;;;27.53;100.00;98548.95;105404;1259;59825;-75
2023/08/04 12:53:57;;;;;;;3.90;1.90;;;;;;;27.66;100.00;98540.77;105325;1260;64517;-74
2023/08/04 12:56:24;;;;;;;4.80;2.50;;;;;;;27.75;100.00;98543.30;105339;1260;59684;-74
2023/08/04 12:58:50;;;;;;;4.10;2.50;;;;;;;27.84;100.00;98547.58;105315;1259;59662;-75
2023/08/04 13:01:17;;;;;;;2.70;1.90;;;;;;;27.84;100.00;98554.58;105326;1260;65386;-75
2023/08/04 13:03:43;;;;;;;4.70;2.30;;;;;;;27.82;100.00;98555.06;105314;1263;60041;-76
2023/08/04 13:06:10;;;;;;;5.00;2.10;;;;;;;27.85;100.00;98558.90;105360;1263;59640;-74
2023/08/04 13:08:36;;;;;;;4.20;2.00;;;;;;;27.95;100.00;98560.79;105357;1263;59718;-76
2023/08/04 13:11:03;;;;;;;3.90;2.00;;;;;;;28.10;100.00;98559.67;105434;1261;59529;-74
2023/08/04 13:13:29;;;;;;;3.80;2.00;;;;;;;28.21;100.00;98563.81;105189;1259;65132;-75
2023/08/04 13:15:56;;;;;;;2.90;1.90;;;;;;;28.30;100.00;98559.58;105368;1263;61722;-75
2023/08/04 13:18:23;;;;;;;2.70;2.00;;;;;;;28.35;100.00;98555.02;105396;1258;63632;-76
2023/08/04 13:20:49;;;;;;;4.40;1.80;;;;;;;28.45;100.00;98553.63;105320;1260;59758;-75
2023/08/04 13:23:16;;;;;;;4.60;1.80;;;;;;;28.58;100.00;98554.34;105320;1260;59685;-76
2023/08/04 13:25:43;;;;;;;2.50;1.60;;;;;;;28.76;100.00;98556.34;105236;1261;63140;-75
2023/08/04 13:28:11;;;;;;;4.30;2.00;;;;;;;28.93;100.00;98546.27;105256;1260;60682;-76
2023/08/04 13:30:37;;;;;;;2.40;1.80;;;;;;;29.03;100.00;98544.64;105354;1260;63358;-75
2023/08/04 13:33:04;;;;;;;4.00;2.30;;;;;;;29.28;100.00;98544.89;105408;1260;59698;-75
2023/08/04 13:35:30;;;;;;;3.80;1.30;;;;;;;29.39;100.00;98550.00;105312;1260;59624;-75
2023/08/04 13:37:57;;;;;;;3.50;1.60;;;;;;;29.46;100.00;98550.02;105350;1260;64935;-79
2023/08/04 13:40:24;;;;;;;3.00;1.40;;;;;;;29.48;100.00;98548.95;105332;1260;60630;-77
2023/08/04 13:42:50;;;;;;;3.60;1.40;;;;;;;29.47;100.00;98550.67;105359;1263;71705;-76
2023/08/04 13:45:17;;;;;;;2.60;1.30;;;;;;;29.34;99.93;98553.83;105313;1260;59745;-75
2023/08/04 13:47:45;;;;;;;3.20;1.50;;;;;;;29.19;99.90;98556.59;105348;1260;59621;-75
2023/08/04 13:50:11;;;;;;;2.70;2.00;;;;;;;29.11;96.72;98560.17;105315;1261;65113;-75
2023/08/04 13:52:38;;;;;;;2.50;1.80;;;;;;;29.09;93.98;98560.41;105274;1263;60670;-75
2023/08/04 13:55:05;;;;;;;2.40;1.50;;;;;;;29.13;93.91;98555.91;105089;1260;64868;-74
2023/08/04 13:57:32;;;;;;;1.90;1.30;;;;;;;29.23;92.48;98553.21;105305;1260;59768;-75
2023/08/04 13:59:58;;;;;;;4.70;1.50;;;;;;;29.14;90.90;98546.48;105332;1259;59616;-75
2023/08/04 14:02:27;;;;;;;3.10;1.40;;;;;;;29.11;88.09;98544.92;105306;1263;64966;-75
2023/08/04 14:04:54;;;;;;;3.60;1.00;;;;;;;29.04;86.83;98549.56;105466;1256;61770;-75
2023/08/04 14:07:21;;;;;;;3.70;1.70;;;;;;;28.96;86.23;98550.67;105480;1256;63997;-75
2023/08/04 14:09:47;;;;;;;2.60;1.20;;;;;;;28.87;86.33;98553.64;105496;1260;59558;-75
2023/08/04 14:12:14;;;;;;;4.40;1.40;;;;;;;28.78;86.01;98555.29;105492;1258;59640;-75
2023/08/04 14:14:40;;;;;;;2.60;1.30;;;;;;;28.52;83.15;98560.20;105344;1255;65564;-74
2023/08/04 14:17:07;;;;;;;3.30;1.70;;;;;;;28.22;78.89;98558.73;105504;1257;60976;-74
2023/08/04 14:19:33;;;;;;;2.30;1.10;;;;;;;27.95;76.00;98558.94;105472;1257;64771;-75
2023/08/04 14:22:00;;;;;;;1.30;1.10;;;;;;;27.80;76.86;98558.77;105472;1257;59624;-74
2023/08/04 14:24:26;;;;;;;1.90;1.00;;;;;;;27.74;77.73;98564.53;105328;1257;59791;-75
2023/08/04 14:26:53;;;;;;;4.00;1.40;;;;;;;27.68;77.62;98565.26;105498;1256;64970;-76
2023/08/04 14:29:20;;;;;;;1.50;1.10;;;;;;;27.72;77.93;98565.43;105460;1257;59513;-75
2023/08/04 14:31:46;;;;;;;2.50;1.20;;;;;;;27.84;78.43;98567.70;105459;1257;63732;-79
2023/08/04 14:34:13;;;;;;;2.60;1.00;;;;;;;27.85;77.87;98573.39;105665;1254;59662;-79
2023/08/04 14:36:39;;;;;;;5.00;1.00;;;;;;;27.75;77.50;98577.20;105667;1257;59647;-79
2023/08/04 14:39:06;;;;;;;1.90;1.10;;;;;;;27.67;77.30;98577.19;105655;1257;59569;-79
2023/08/04 14:41:32;;;;;;;2.00;0.90;;;;;;;27.66;77.95;98578.55;105380;1254;59710;-80
2023/08/04 14:43:59;;;;;;;3.00;1.40;;;;;;;27.65;77.15;98577.80;105652;1257;65976;-80
2023/08/04 14:46:26;;;;;;;3.30;1.40;;;;;;;27.61;77.09;98574.17;105662;1253;59727;-79
2023/08/04 14:48:52;;;;;;;5.30;1.80;;;;;;;27.68;77.55;98572.93;105387;1257;59621;-79
2023/08/04 14:51:19;;;;;;;3.20;1.70;;;;;;;27.90;77.24;98567.87;109495;1254;64916;-79
2023/08/04 14:53:45;;;;;;;2.80;1.10;;;;;;;28.08;76.02;98564.51;109446;1253;60066;-81
2023/08/04 14:56:12;;;;;;;4.80;1.80;;;;;;;28.24;76.13;98565.47;109451;1254;64168;-81
2023/08/04 14:58:38;;;;;;;2.10;1.30;;;;;;;28.41;75.41;98565.64;109241;1254;57468;-79
2023/08/04 15:01:06;;;;;;;3.00;1.30;;;;;;;28.46;71.51;98558.33;109454;1254;57205;-79
2023/08/04 15:03:36;;;;;;;3.50;1.30;;;;;;;28.40;70.41;98556.15;109405;1254;63875;-79
2023/08/04 15:06:17;;;;;;;2.20;1.30;;;;;;;28.30;70.38;98550.10;109444;1254;59849;-79
2023/08/04 15:08:44;;;;;;;1.30;1.10;;;;;;;28.19;70.41;98545.88;109453;1253;65232;-79
2023/08/04 15:11:12;;;;;;;3.00;1.20;;;;;;;28.09;70.63;98540.80;109180;1254;57508;-79
2023/08/04 15:13:39;;;;;;;4.80;1.20;;;;;;;27.94;70.94;98533.29;109422;1254;57441;-79
2023/08/04 15:16:07;;;;;;;2.20;1.00;;;;;;;27.86;71.41;98531.42;109465;1253;64431;-79
2023/08/04 15:18:35;;;;;;;2.30;1.30;;;;;;;27.86;72.39;98533.36;109426;1254;59830;-79
2023/08/04 15:21:02;;;;;;;1.60;1.40;;;;;;;27.85;72.97;98535.98;109483;1254;63688;-78
2023/08/04 15:23:28;;;;;;;2.10;1.20;;;;;;;27.82;73.29;98535.01;109495;1254;57376;-78
2023/08/04 15:25:55;;;;;;;2.80;0.80;;;;;;;27.71;73.95;98534.33;109443;1254;57449;-78
2023/08/04 15:28:22;;;;;;;3.90;1.50;;;;;;;27.60;74.89;98533.20;109485;1254;64108;-78
2023/08/04 15:30:49;;;;;;;2.20;1.00;;;;;;;27.49;74.69;98531.65;109489;1254;60436;-80
2023/08/04 15:33:16;;;;;;;2.70;1.80;;;;;;;27.42;73.42;98538.55;109413;1254;62727;-79
2023/08/04 15:35:45;;;;;;;1.60;1.10;;;;;;;27.35;71.67;98541.13;109404;1254;57312;-78
2023/08/04 15:38:11;;;;;;;2.40;1.30;;;;;;;27.35;71.64;98535.08;109422;1254;57334;-79
2023/08/04 15:40:40;;;;;;;2.40;1.20;;;;;;;27.43;71.34;98527.86;109300;1254;64355;-79
2023/08/04 15:43:07;;;;;;;2.70;1.40;;;;;;;27.56;70.65;98524.81;109147;1254;58675;-79
2023/08/04 15:45:33;;;;;;;3.00;2.00;;;;;;;27.69;70.73;98520.73;109408;1254;65339;-79
2023/08/04 15:48:00;;;;;;;2.40;1.70;;;;;;;27.69;70.21;98519.58;109416;1254;57434;-78
2023/08/04 15:50:26;;;;;;;1.90;1.20;;;;;;;27.66;71.09;98522.09;109454;1254;57293;-79
2023/08/04 15:52:53;;;;;;;2.30;1.30;;;;;;;27.66;71.34;98525.77;109470;1254;64440;-79
2023/08/04 15:55:19;;;;;;;2.00;1.20;;;;;;;27.54;70.41;98528.35;109429;1254;60091;-79
2023/08/04 15:57:46;;;;;;;4.60;1.50;;;;;;;27.35;69.72;98530.95;109427;1254;63781;-79
2023/08/04 16:00:13;;;;;;;3.30;1.70;;;;;;;27.17;70.48;98533.38;109395;1254;57378;-77
2023/08/04 16:02:40;;;;;;;3.70;1.70;;;;;;;27.00;71.17;98527.00;109203;1254;57515;-79
2023/08/04 16:05:07;;;;;;;2.20;1.40;;;;;;;26.84;69.59;98524.78;109391;1254;63211;-79
2023/08/04 16:07:33;;;;;;;2.70;1.20;;;;;;;26.69;70.30;98528.48;109419;1254;69672;-79